createdAt,value
2023-01-11T00:01:09.291Z,6.70
2023-01-11T00:03:37.230Z,9.73
2023-01-11T00:06:06.761Z,6.22
2023-01-11T00:08:34.491Z,7.88
2023-01-11T00:11:02.460Z,4.25
2023-01-11T00:13:32.077Z,3.97
2023-01-11T00:16:07.599Z,6.72
2023-01-11T00:18:36.591Z,6.68
2023-01-11T00:21:05.801Z,4.13
2023-01-11T00:23:35.581Z,3.70
2023-01-11T00:26:09.759Z,6.18
2023-01-11T00:28:38.895Z,6.47
2023-01-11T00:31:06.648Z,10.07
2023-01-11T00:33:34.945Z,3.92
2023-01-11T00:36:02.661Z,5.40
2023-01-11T00:38:53.666Z,5.90
2023-01-11T00:41:42.037Z,5.18
2023-01-11T00:44:29.934Z,8.35
2023-01-11T00:47:16.736Z,3.95
2023-01-11T00:49:44.725Z,6.95
2023-01-11T00:52:12.527Z,7.50
2023-01-11T00:54:42.092Z,5.55
2023-01-11T00:57:10.089Z,3.50
2023-01-11T00:59:41.439Z,5.32
2023-01-11T01:02:11.062Z,5.65
2023-01-11T01:04:39.685Z,6.00
2023-01-11T01:07:08.173Z,5.40
2023-01-11T01:09:35.907Z,5.50
2023-01-11T01:12:04.166Z,5.30
2023-01-11T01:14:33.429Z,6.32
2023-01-11T01:17:07.783Z,3.17
2023-01-11T01:19:38.202Z,5.10
2023-01-11T01:22:05.991Z,5.43
2023-01-11T01:24:34.021Z,8.15
2023-01-11T01:27:01.736Z,4.10
2023-01-11T01:29:29.461Z,4.78
2023-01-11T01:31:57.208Z,4.90
2023-01-11T01:34:25.004Z,4.88
2023-01-11T01:36:52.667Z,4.70
2023-01-11T01:39:20.408Z,3.40
2023-01-11T01:41:48.125Z,3.50
2023-01-11T01:44:54.554Z,4.22
2023-01-11T01:47:30.498Z,5.85
2023-01-11T01:50:03.915Z,7.75
2023-01-11T01:52:33.245Z,3.47
2023-01-11T01:55:07.524Z,6.03
2023-01-11T01:57:40.255Z,3.85
2023-01-11T02:00:10.265Z,7.75
2023-01-11T02:02:40.352Z,6.10
2023-01-11T02:05:10.312Z,3.67
2023-01-11T02:07:40.808Z,6.30
2023-01-11T02:10:18.084Z,7.10
2023-01-11T02:13:06.317Z,5.45
2023-01-11T02:15:34.172Z,5.15
2023-01-11T02:18:01.838Z,5.90
2023-01-11T02:21:06.679Z,4.28
2023-01-11T02:23:58.361Z,6.50
2023-01-11T02:27:14.607Z,6.70
2023-01-11T02:29:50.798Z,6.60
2023-01-11T02:32:41.167Z,8.18
2023-01-11T02:35:42.934Z,7.25
2023-01-11T02:38:21.300Z,8.80
2023-01-11T02:41:04.277Z,8.50
2023-01-11T02:44:16.199Z,9.02
2023-01-11T02:47:01.008Z,9.07
2023-01-11T02:49:45.937Z,10.98
2023-01-11T02:52:32.338Z,8.55
2023-01-11T02:55:02.836Z,9.80
2023-01-11T02:57:32.311Z,10.60
2023-01-11T03:00:01.881Z,8.60
2023-01-11T03:02:29.739Z,9.25
2023-01-11T03:04:57.451Z,8.88
2023-01-11T03:07:57.334Z,7.85
2023-01-11T03:10:55.425Z,6.97
2023-01-11T03:13:37.470Z,6.90
2023-01-11T03:16:21.454Z,5.53
2023-01-11T03:19:05.886Z,8.73
2023-01-11T03:22:10.064Z,5.45
2023-01-11T03:24:41.062Z,5.32
2023-01-11T03:27:35.570Z,7.63
2023-01-11T03:30:22.123Z,5.28
2023-01-11T03:33:03.013Z,6.03
2023-01-11T03:36:13.758Z,5.72
2023-01-11T03:38:54.821Z,6.28
2023-01-11T03:41:28.607Z,6.78
2023-01-11T03:44:00.205Z,6.38
2023-01-11T03:46:34.388Z,6.30
2023-01-11T03:49:11.963Z,9.95
2023-01-11T03:51:45.069Z,12.23
2023-01-11T03:54:24.419Z,6.07
2023-01-11T03:57:14.744Z,11.35
2023-01-11T03:59:42.739Z,7.93
2023-01-11T04:02:26.752Z,13.43
2023-01-11T04:04:54.761Z,11.90
2023-01-11T04:07:22.449Z,19.33
2023-01-11T04:09:50.224Z,17.92
2023-01-11T04:12:17.870Z,17.10
2023-01-11T04:14:45.669Z,21.48
2023-01-11T04:17:13.315Z,21.92
2023-01-11T04:19:41.131Z,20.50
2023-01-11T04:22:08.773Z,24.67
2023-01-11T04:24:36.512Z,26.60
2023-01-11T04:27:04.238Z,20.73
2023-01-11T04:29:31.882Z,22.25
2023-01-11T04:31:59.532Z,21.38
2023-01-11T04:34:27.230Z,31.38
2023-01-11T04:36:54.897Z,29.45
2023-01-11T04:39:22.740Z,29.45
2023-01-11T04:42:09.197Z,25.27
2023-01-11T04:44:36.969Z,30.80
2023-01-11T04:47:04.629Z,29.13
2023-01-11T04:49:32.340Z,29.40
2023-01-11T04:52:00.055Z,25.50
2023-01-11T04:54:27.768Z,31.98
2023-01-11T04:56:55.564Z,29.75
2023-01-11T04:59:23.203Z,34.70
2023-01-11T05:01:50.902Z,27.48
2023-01-11T05:04:18.710Z,29.52
2023-01-11T05:06:46.670Z,18.38
2023-01-11T05:09:16.940Z,30.08
2023-01-11T05:11:45.342Z,30.48
2023-01-11T05:14:13.707Z,27.67
2023-01-11T05:16:41.739Z,26.92
2023-01-11T05:19:11.966Z,20.60
2023-01-11T05:21:41.595Z,23.23
2023-01-11T05:24:13.809Z,21.20
2023-01-11T05:26:44.717Z,26.30
2023-01-11T05:29:16.307Z,30.60
2023-01-11T05:31:44.291Z,32.65
2023-01-11T05:34:14.969Z,32.17
2023-01-11T05:36:44.075Z,27.35
2023-01-11T05:39:13.759Z,25.73
2023-01-11T05:41:41.456Z,26.83
2023-01-11T05:44:31.493Z,18.63
2023-01-11T05:46:59.431Z,27.27
2023-01-11T05:49:27.120Z,18.83
2023-01-11T05:51:54.915Z,23.88
2023-01-11T05:54:22.627Z,19.30
2023-01-11T05:56:50.276Z,16.45
2023-01-11T05:59:17.969Z,24.27
2023-01-11T06:01:45.693Z,21.13
2023-01-11T06:04:14.500Z,30.63
2023-01-11T06:06:42.238Z,17.77
2023-01-11T06:09:10.071Z,13.43
2023-01-11T06:11:37.636Z,14.88
2023-01-11T06:14:05.393Z,17.13
2023-01-11T06:16:33.046Z,20.75
2023-01-11T06:19:00.840Z,21.95
2023-01-11T06:21:28.551Z,13.48
2023-01-11T06:23:56.268Z,13.10
2023-01-11T06:26:24.103Z,18.67
2023-01-11T06:28:51.890Z,19.08
2023-01-11T06:31:20.383Z,15.77
2023-01-11T06:33:48.282Z,18.92
2023-01-11T06:36:16.277Z,15.82
2023-01-11T06:38:45.003Z,18.42
2023-01-11T06:41:13.532Z,13.23
2023-01-11T06:43:42.194Z,13.30
2023-01-11T06:46:15.317Z,16.25
2023-01-11T06:48:44.492Z,19.33
2023-01-11T06:51:14.304Z,19.70
2023-01-11T06:53:43.189Z,15.98
2023-01-11T06:56:14.947Z,17.63
2023-01-11T06:58:43.500Z,15.68
2023-01-11T07:01:12.687Z,18.15
2023-01-11T07:03:41.677Z,17.27
2023-01-11T07:06:09.377Z,16.05
2023-01-11T07:08:38.478Z,13.68
2023-01-11T07:11:06.825Z,19.75
2023-01-11T07:13:35.321Z,18.98
2023-01-11T07:16:03.097Z,17.63
2023-01-11T07:18:31.822Z,19.75
2023-01-11T07:20:59.591Z,18.88
2023-01-11T07:23:27.372Z,14.52
2023-01-11T07:25:55.440Z,20.67
2023-01-11T07:28:23.209Z,18.58
2023-01-11T07:30:58.824Z,16.65
2023-01-11T07:33:27.440Z,13.85
2023-01-11T07:35:55.451Z,27.08
2023-01-11T07:38:23.298Z,16.20
2023-01-11T07:40:51.066Z,20.90
2023-01-11T07:43:20.075Z,18.35
2023-01-11T07:45:50.362Z,13.38
2023-01-11T07:48:27.819Z,13.63
2023-01-11T07:50:55.588Z,12.88
2023-01-11T07:53:26.204Z,25.02
2023-01-11T07:55:57.243Z,19.85
2023-01-11T07:58:24.976Z,24.85
2023-01-11T08:00:53.004Z,17.63
2023-01-11T08:03:20.864Z,20.30
2023-01-11T08:05:52.896Z,12.70
2023-01-11T08:08:21.188Z,22.00
2023-01-11T08:11:09.149Z,20.13
2023-01-11T08:13:55.234Z,22.20
2023-01-11T08:18:52.527Z,15.68
2023-01-11T08:21:21.429Z,21.13
2023-01-11T08:23:49.096Z,25.63
2023-01-11T08:26:18.055Z,17.55
2023-01-11T08:28:46.746Z,20.38
2023-01-11T08:31:14.624Z,22.65
2023-01-11T08:33:42.524Z,14.95
2023-01-11T08:36:12.889Z,23.83
2023-01-11T08:38:40.863Z,14.25
2023-01-11T08:41:10.852Z,25.00
2023-01-11T08:43:42.496Z,23.17
2023-01-11T08:46:10.704Z,20.42
2023-01-11T08:48:38.430Z,21.95
2023-01-11T08:51:06.265Z,25.27
2023-01-11T08:53:34.079Z,20.33
2023-01-11T08:56:02.043Z,18.23
2023-01-11T08:58:30.344Z,21.50
2023-01-11T09:01:00.183Z,25.23
2023-01-11T09:03:28.683Z,27.25
2023-01-11T09:05:56.957Z,26.10
2023-01-11T09:08:26.676Z,17.35
2023-01-11T09:10:56.356Z,32.33
2023-01-11T09:13:24.075Z,18.98
2023-01-11T09:15:56.818Z,12.70
2023-01-11T09:18:26.915Z,24.35
2023-01-11T09:20:55.802Z,19.63
2023-01-11T09:23:23.458Z,16.48
2023-01-11T09:25:51.173Z,20.58
2023-01-11T09:28:18.811Z,21.83
2023-01-11T09:30:46.510Z,22.98
2023-01-11T09:33:14.225Z,28.35
2023-01-11T09:35:42.880Z,22.60
2023-01-11T09:38:10.542Z,24.67
2023-01-11T09:41:04.469Z,22.10
2023-01-11T09:43:39.872Z,23.27
2023-01-11T09:46:10.754Z,19.23
2023-01-11T09:48:46.725Z,22.85
2023-01-11T09:51:16.529Z,23.45
2023-01-11T09:53:50.246Z,17.42
2023-01-11T09:56:25.327Z,22.10
2023-01-11T09:59:27.045Z,23.05
2023-01-11T10:02:19.737Z,23.17
2023-01-11T10:05:11.867Z,19.30
2023-01-11T10:18:31.574Z,30.23
2023-01-11T10:19:05.904Z,22.67
2023-01-11T10:21:35.822Z,25.08
2023-01-11T10:24:21.558Z,32.92
2023-01-11T10:26:54.189Z,25.15
2023-01-11T10:29:53.150Z,27.05
2023-01-11T10:32:50.209Z,31.67
2023-01-11T10:35:45.228Z,23.90
2023-01-11T10:38:50.367Z,18.63
2023-01-11T10:41:33.983Z,21.73
2023-01-11T10:44:31.461Z,26.23
2023-01-11T10:47:00.051Z,27.50
2023-01-11T10:50:06.038Z,16.80
2023-01-11T10:52:44.497Z,29.65
2023-01-11T10:58:46.115Z,20.40
2023-01-11T11:02:10.324Z,29.55
2023-01-11T11:05:11.729Z,29.58
2023-01-11T11:07:56.636Z,24.40
2023-01-11T11:10:36.235Z,23.42
2023-01-11T11:13:49.902Z,24.05
2023-01-11T11:16:23.801Z,28.52
2023-01-11T11:18:58.433Z,29.13
2023-01-11T11:21:32.962Z,21.20
2023-01-11T11:24:38.008Z,21.40
2023-01-11T11:27:49.688Z,23.52
2023-01-11T11:30:33.114Z,27.33
2023-01-11T11:33:06.287Z,27.08
2023-01-11T11:35:46.677Z,17.73
2023-01-11T11:38:24.343Z,18.77
2023-01-11T11:41:05.760Z,24.83
2023-01-11T11:43:36.576Z,18.70
2023-01-11T11:46:21.806Z,26.88
2023-01-11T11:49:16.262Z,22.67
2023-01-11T11:51:46.351Z,20.48
2023-01-11T11:54:32.585Z,28.10
2023-01-11T11:59:47.703Z,20.55
2023-01-11T12:02:25.039Z,22.40
2023-01-11T12:04:54.859Z,15.45
2023-01-11T12:07:40.474Z,18.50
2023-01-11T12:10:17.558Z,22.10
2023-01-11T12:13:05.133Z,17.02
2023-01-11T12:15:34.618Z,22.98
2023-01-11T12:18:30.818Z,17.73
2023-01-11T12:21:30.397Z,20.67
2023-01-11T12:24:08.955Z,24.50
2023-01-11T12:27:00.777Z,17.33
2023-01-11T12:29:50.523Z,20.92
2023-01-11T12:32:59.986Z,14.20
2023-01-11T12:36:03.382Z,12.90
2023-01-11T12:38:55.135Z,22.08
2023-01-11T12:41:44.122Z,18.85
2023-01-11T12:44:55.876Z,14.55
2023-01-11T12:47:48.263Z,19.67
2023-01-11T12:50:25.315Z,19.08
2023-01-11T12:53:18.076Z,14.40
2023-01-11T12:56:16.061Z,16.13
2023-01-11T12:59:17.396Z,13.10
2023-01-11T13:02:14.351Z,18.80
2023-01-11T13:04:53.426Z,17.60
2023-01-11T13:07:43.551Z,17.00
2023-01-11T13:10:53.368Z,17.92
2023-01-11T13:13:34.828Z,18.63
2023-01-11T13:16:40.862Z,20.48
2023-01-11T13:19:26.166Z,17.52
2023-01-11T13:21:56.123Z,24.53
2023-01-11T13:24:30.643Z,19.27
2023-01-11T13:27:23.538Z,20.25
2023-01-11T13:29:55.625Z,18.42
2023-01-11T13:32:28.342Z,10.45
2023-01-11T13:35:08.787Z,14.60
2023-01-11T13:38:10.726Z,18.73
2023-01-11T13:40:52.904Z,19.60
2023-01-11T13:43:43.940Z,18.52
2023-01-11T13:47:12.010Z,13.93
2023-01-11T13:49:51.568Z,12.43
2023-01-11T13:52:53.099Z,13.10
2023-01-11T13:55:25.475Z,13.02
2023-01-11T13:58:09.054Z,11.48
2023-01-11T14:00:55.299Z,11.77
2023-01-11T14:03:45.422Z,15.40
2023-01-11T14:06:31.614Z,14.35
2023-01-11T14:12:12.047Z,18.50
2023-01-11T14:14:51.719Z,16.90
2023-01-11T14:18:00.588Z,16.35
2023-01-11T14:20:40.275Z,17.27
2023-01-11T14:23:13.464Z,15.70
2023-01-11T14:26:10.166Z,14.20
2023-01-11T14:28:46.689Z,14.85
2023-01-11T14:31:55.791Z,15.65
2023-01-11T14:35:01.538Z,20.80
2023-01-11T14:38:03.220Z,19.33
2023-01-11T14:40:43.176Z,15.88
2023-01-11T14:43:25.897Z,19.90
2023-01-11T14:46:14.794Z,17.98
2023-01-11T14:49:40.226Z,18.75
2023-01-11T14:52:39.231Z,15.80
2023-01-11T14:55:30.049Z,24.00
2023-01-11T14:58:17.181Z,24.60
2023-01-11T15:00:44.885Z,21.88
2023-01-11T15:03:21.315Z,18.10
2023-01-11T15:05:55.681Z,21.35
2023-01-11T15:08:41.560Z,16.80
2023-01-11T15:11:34.090Z,17.95
2023-01-11T15:14:22.400Z,24.10
2023-01-11T15:17:33.488Z,14.80
2023-01-11T15:20:25.159Z,16.23
2023-01-11T15:23:05.513Z,20.25
2023-01-11T15:25:35.569Z,9.05
2023-01-11T15:28:43.638Z,13.98
2023-01-11T15:31:52.178Z,9.60
2023-01-11T15:34:47.992Z,21.27
2023-01-11T15:37:40.764Z,12.43
2023-01-11T15:40:20.013Z,13.82
2023-01-11T15:43:05.567Z,12.23
2023-01-11T15:46:07.140Z,7.90
2023-01-11T15:49:14.510Z,8.80
2023-01-11T15:52:06.302Z,10.35
2023-01-11T15:55:18.902Z,15.15
2023-01-11T15:58:34.865Z,16.20
2023-01-11T16:01:36.503Z,16.23
2023-01-11T16:05:05.352Z,10.45
2023-01-11T16:07:40.399Z,8.90
2023-01-11T16:10:42.459Z,15.07
2023-01-11T16:13:45.155Z,19.67
2023-01-11T16:16:27.387Z,14.82
2023-01-11T16:19:01.152Z,12.02
2023-01-11T16:21:39.227Z,12.43
2023-01-11T16:24:17.693Z,20.08
2023-01-11T16:26:55.298Z,18.92
2023-01-11T16:29:38.165Z,18.92
2023-01-11T16:32:32.474Z,16.75
2023-01-11T16:35:02.308Z,19.42
2023-01-11T16:37:44.290Z,17.38
2023-01-11T16:40:24.602Z,26.77
2023-01-11T16:43:00.770Z,19.20
2023-01-11T16:45:44.505Z,25.52
2023-01-11T16:48:20.134Z,16.75
2023-01-11T16:51:03.982Z,19.08
2023-01-11T16:53:38.857Z,15.27
2023-01-11T16:56:21.757Z,12.90
2023-01-11T16:59:16.334Z,17.83
2023-01-11T17:01:54.124Z,12.95
2023-01-11T17:04:45.369Z,15.13
2023-01-11T17:07:19.839Z,17.40
2023-01-11T17:09:48.444Z,15.50
2023-01-11T17:12:25.520Z,20.95
2023-01-11T17:15:23.492Z,22.13
2023-01-11T17:17:51.515Z,13.18
2023-01-11T17:20:30.505Z,19.63
2023-01-11T17:23:00.322Z,16.05
2023-01-11T17:25:43.563Z,19.10
2023-01-11T17:28:19.958Z,16.00
2023-01-11T17:30:50.793Z,16.33
2023-01-11T17:33:33.178Z,13.38
2023-01-11T17:36:01.980Z,21.15
2023-01-11T17:38:30.696Z,17.00
2023-01-11T17:41:01.229Z,17.80
2023-01-11T17:43:48.728Z,17.08
2023-01-11T17:46:21.017Z,13.77
2023-01-11T17:48:57.334Z,17.45
2023-01-11T17:51:31.673Z,17.63
2023-01-11T17:53:59.712Z,18.27
2023-01-11T17:56:41.898Z,20.55
2023-01-11T17:59:30.510Z,16.95
2023-01-11T18:02:05.080Z,18.38
2023-01-11T18:04:33.158Z,27.43
2023-01-11T18:07:18.625Z,16.05
2023-01-11T18:09:50.392Z,25.05
2023-01-11T18:12:22.076Z,15.73
2023-01-11T18:14:54.734Z,20.17
2023-01-11T18:17:42.262Z,19.60
2023-01-11T18:20:16.213Z,16.73
2023-01-11T18:23:22.701Z,22.77
2023-01-11T18:25:50.788Z,23.03
2023-01-11T18:28:28.036Z,11.07
2023-01-11T18:31:01.720Z,18.65
2023-01-11T18:33:34.091Z,22.65
2023-01-11T18:36:05.230Z,21.63
2023-01-11T18:38:36.577Z,13.48
2023-01-11T18:41:28.292Z,18.15
2023-01-11T18:43:56.290Z,19.95
2023-01-11T18:46:24.262Z,14.52
2023-01-11T18:48:52.207Z,19.08
2023-01-11T18:51:28.267Z,22.92
2023-01-11T18:53:56.015Z,12.70
2023-01-11T18:56:23.801Z,23.85
2023-01-11T18:58:51.452Z,16.08
2023-01-11T19:01:19.459Z,22.73
2023-01-11T19:03:47.226Z,18.63
2023-01-11T19:06:15.972Z,22.58
2023-01-11T19:08:43.720Z,18.25
2023-01-11T19:11:13.865Z,23.75
2023-01-11T19:13:41.588Z,22.75
2023-01-11T19:16:09.342Z,16.60
2023-01-11T19:18:37.147Z,23.10
2023-01-11T19:21:06.839Z,25.23
2023-01-11T19:23:34.929Z,28.13
2023-01-11T19:26:02.855Z,27.58
2023-01-11T19:28:31.039Z,19.15
2023-01-11T19:30:58.862Z,29.58
2023-01-11T19:33:26.656Z,21.70
2023-01-11T19:35:54.280Z,19.10
2023-01-11T19:38:21.910Z,24.83
2023-01-11T19:40:50.576Z,18.70
2023-01-11T19:43:22.146Z,22.67
2023-01-11T19:45:56.630Z,19.38
2023-01-11T19:48:25.434Z,23.17
2023-01-11T19:51:02.715Z,18.50
2023-01-11T19:53:32.431Z,17.73
2023-01-11T19:56:06.227Z,14.15
2023-01-11T19:58:37.456Z,11.13
2023-01-11T20:01:12.713Z,15.35
2023-01-11T20:03:41.884Z,17.45
2023-01-11T20:06:10.112Z,10.20
2023-01-11T20:08:40.607Z,8.73
2023-01-11T20:11:12.693Z,10.45
2023-01-11T20:13:41.639Z,8.10
2023-01-11T20:16:13.705Z,7.90
2023-01-11T20:18:42.799Z,10.35
2023-01-11T20:21:11.035Z,7.85
2023-01-11T20:23:38.759Z,10.07
2023-01-11T20:26:07.952Z,10.23
2023-01-11T20:28:35.760Z,8.13
2023-01-11T20:31:06.774Z,8.48
2023-01-11T20:33:34.871Z,7.78
2023-01-11T20:36:15.065Z,10.85
2023-01-11T20:38:44.725Z,4.45
2023-01-11T20:41:34.935Z,6.75
2023-01-11T20:44:03.692Z,7.28
2023-01-11T20:46:33.254Z,5.78
2023-01-11T20:49:01.903Z,6.68
2023-01-11T20:51:30.505Z,11.50
2023-01-11T20:53:58.516Z,9.45
2023-01-11T20:56:26.209Z,6.85
2023-01-11T20:58:54.374Z,6.53
2023-01-11T21:01:31.323Z,4.43
2023-01-11T21:04:02.624Z,9.18
2023-01-11T21:06:33.778Z,7.93
2023-01-11T21:09:02.759Z,6.43
2023-01-11T21:11:34.160Z,7.85
2023-01-11T21:14:05.377Z,8.55
2023-01-11T21:16:33.239Z,10.55
2023-01-11T21:19:05.342Z,10.30
2023-01-11T21:21:34.769Z,12.10
2023-01-11T21:24:05.582Z,11.68
2023-01-11T21:26:34.779Z,5.50
2023-01-11T21:29:05.088Z,11.52
2023-01-11T21:31:35.554Z,4.90
2023-01-11T21:34:05.349Z,10.38
2023-01-11T21:36:34.556Z,6.65
2023-01-11T21:39:03.399Z,14.95
2023-01-11T21:41:52.838Z,5.10
2023-01-11T21:44:22.851Z,5.45
2023-01-11T21:46:50.667Z,6.28
2023-01-11T21:49:18.558Z,12.02
2023-01-11T21:51:46.618Z,6.93
2023-01-11T21:54:17.952Z,10.90
2023-01-11T21:56:47.842Z,5.63
2023-01-11T21:59:16.266Z,5.07
2023-01-11T22:01:46.058Z,6.88
2023-01-11T22:04:15.964Z,7.78
2023-01-11T22:06:50.962Z,6.78
2023-01-11T22:09:19.917Z,6.97
2023-01-11T22:11:47.734Z,8.32
2023-01-11T22:14:15.467Z,16.10
2023-01-11T22:16:43.219Z,14.43
2023-01-11T22:19:11.115Z,14.80
2023-01-11T22:21:38.828Z,15.27
2023-01-11T22:24:09.590Z,18.67
2023-01-11T22:26:38.930Z,16.20
2023-01-11T22:29:17.821Z,10.50
2023-01-11T22:31:54.767Z,17.63
2023-01-11T22:34:23.479Z,16.73
2023-01-11T22:36:51.229Z,13.65
2023-01-11T22:39:19.686Z,18.60
2023-01-11T22:41:48.981Z,14.27
2023-01-11T22:44:18.517Z,9.23
2023-01-11T22:46:46.650Z,10.50
2023-01-11T22:49:15.194Z,11.55
2023-01-11T22:51:43.950Z,13.90
2023-01-11T22:54:12.378Z,20.38
2023-01-11T22:56:40.400Z,16.88
2023-01-11T22:59:08.251Z,24.08
2023-01-11T23:01:39.726Z,24.90
2023-01-11T23:04:12.109Z,25.20
2023-01-11T23:06:41.764Z,17.25
2023-01-11T23:09:15.949Z,17.45
2023-01-11T23:12:08.142Z,22.55
2023-01-11T23:14:36.029Z,28.63
2023-01-11T23:17:08.295Z,24.98
2023-01-11T23:19:39.594Z,24.98
2023-01-11T23:22:09.039Z,24.38
2023-01-11T23:24:37.736Z,24.30
2023-01-11T23:27:05.931Z,23.73
2023-01-11T23:29:33.833Z,19.45
2023-01-11T23:32:02.147Z,25.77
2023-01-11T23:34:30.051Z,22.80
2023-01-11T23:36:57.717Z,26.02
2023-01-11T23:39:25.379Z,22.25
2023-01-11T23:42:11.721Z,21.23
2023-01-11T23:44:39.419Z,26.92
2023-01-11T23:47:22.297Z,28.75
2023-01-11T23:49:55.907Z,26.33
2023-01-11T23:52:26.990Z,30.92
2023-01-11T23:54:55.259Z,20.17
2023-01-11T23:57:25.304Z,26.88
2023-01-11T23:59:52.995Z,36.67
